Terminal Aerodrome Forecast
Issued by NWS

Home | Current Version | Previous Version | Text Only | Print | Product List | Glossary On
Versions: 1 2 3 4 5 6 7 8 9 10 11 12 13 14
019
FTUS42 KILM 152327
TAFCRE
TAF
KCRE 152327Z 1600/1624 25005KT P6SM BKN140 BKN250
     FM160300 33004KT P6SM BKN140 BKN250
     FM160600 36003KT P6SM BKN250
     FM161500 04005KT P6SM BKN250
     FM161800 17006KT P6SM SKC=

USA.gov is the U.S. government's official web portal to all federal, state and local government web resources and services.